createdAt,value
2019-04-16T00:01:15.056Z,8.00
2019-04-16T00:03:46.970Z,8.00
2019-04-16T00:06:30.706Z,8.00
2019-04-16T00:09:11.046Z,7.90
2019-04-16T00:11:52.123Z,7.90
2019-04-16T00:14:23.970Z,7.90
2019-04-16T00:16:54.156Z,7.90
2019-04-16T00:19:24.662Z,7.90
2019-04-16T00:21:59.414Z,7.80
2019-04-16T00:24:34.118Z,7.80
2019-04-16T00:27:04.669Z,7.80
2019-04-16T00:29:34.885Z,7.80
2019-04-16T00:32:09.119Z,7.70
2019-04-16T00:34:38.728Z,7.70
2019-04-16T00:37:08.982Z,7.60
2019-04-16T00:39:39.202Z,7.60
2019-04-16T00:42:09.396Z,7.60
2019-04-16T00:44:39.613Z,7.60
2019-04-16T00:47:09.955Z,7.60
2019-04-16T00:49:40.171Z,7.50
2019-04-16T00:52:10.386Z,7.50
2019-04-16T00:54:42.346Z,7.50
2019-04-16T00:57:12.561Z,7.50
2019-04-16T00:59:42.747Z,7.40
2019-04-16T01:02:12.973Z,7.40
2019-04-16T01:04:43.204Z,7.40
2019-04-16T01:07:13.413Z,7.40
2019-04-16T01:09:43.643Z,7.30
2019-04-16T01:12:13.930Z,7.30
2019-04-16T01:14:44.234Z,7.30
2019-04-16T01:17:15.252Z,7.20
2019-04-16T01:19:45.457Z,7.20
2019-04-16T01:22:16.154Z,7.20
2019-04-16T01:24:51.592Z,7.20
2019-04-16T01:27:20.668Z,7.10
2019-04-16T01:29:50.916Z,7.10
2019-04-16T01:32:42.451Z,7.10
2019-04-16T01:35:19.008Z,7.00
2019-04-16T01:38:06.922Z,7.10
2019-04-16T01:40:39.182Z,7.10
2019-04-16T01:43:09.379Z,7.00
2019-04-16T01:45:39.649Z,7.10
2019-04-16T01:48:09.843Z,7.00
2019-04-16T01:50:43.556Z,7.00
2019-04-16T01:53:12.025Z,7.00
2019-04-16T01:55:42.629Z,7.00
2019-04-16T01:58:12.977Z,6.90
2019-04-16T02:00:43.253Z,6.90
2019-04-16T02:03:17.573Z,6.90
2019-04-16T02:05:45.573Z,6.90
2019-04-16T02:08:15.807Z,6.90
2019-04-16T02:10:45.997Z,6.90
2019-04-16T02:13:16.206Z,6.90
2019-04-16T02:15:46.484Z,6.90
2019-04-16T02:18:16.779Z,6.90
2019-04-16T02:20:46.961Z,6.80
2019-04-16T02:23:17.472Z,6.80
2019-04-16T02:25:48.483Z,6.80
2019-04-16T02:28:21.640Z,6.80
2019-04-16T02:30:51.606Z,6.80
2019-04-16T02:33:21.846Z,6.70
2019-04-16T02:35:52.046Z,6.70
2019-04-16T02:38:22.252Z,6.70
2019-04-16T02:40:53.351Z,6.70
2019-04-16T02:43:24.962Z,6.70
2019-04-16T02:46:07.448Z,6.60
2019-04-16T02:48:37.672Z,7.60
2019-04-16T02:51:12.571Z,6.50
2019-04-16T02:54:00.052Z,6.50
2019-04-16T02:56:41.236Z,6.50
2019-04-16T02:59:13.700Z,6.40
2019-04-16T03:02:00.880Z,6.40
2019-04-16T03:04:47.959Z,6.30
2019-04-16T03:07:18.149Z,6.30
2019-04-16T03:10:00.754Z,6.20
2019-04-16T03:12:21.590Z,6.20
2019-04-16T03:14:52.375Z,6.10
2019-04-16T03:17:24.280Z,6.10
2019-04-16T03:19:58.625Z,6.00
2019-04-16T03:22:30.645Z,6.00
2019-04-16T03:25:00.989Z,6.00
2019-04-16T03:27:31.183Z,5.90
2019-04-16T03:30:03.651Z,5.90
2019-04-16T03:32:36.194Z,5.90
2019-04-16T03:35:07.025Z,5.90
2019-04-16T03:37:49.631Z,5.90
2019-04-16T03:40:24.794Z,5.90
2019-04-16T03:42:51.753Z,5.90
2019-04-16T03:45:21.971Z,5.90
2019-04-16T03:47:52.418Z,5.90
2019-04-16T03:50:22.764Z,5.80
2019-04-16T03:52:52.957Z,5.80
2019-04-16T03:55:26.317Z,5.80
2019-04-16T03:57:55.070Z,5.80
2019-04-16T04:00:25.359Z,5.80
2019-04-16T04:02:55.544Z,5.80
2019-04-16T04:05:25.769Z,5.70
2019-04-16T04:07:55.957Z,5.70
2019-04-16T04:10:30.778Z,5.70
2019-04-16T04:12:58.640Z,5.70
2019-04-16T04:15:28.890Z,5.70
2019-04-16T04:17:59.248Z,5.60
2019-04-16T04:20:29.464Z,5.60
2019-04-16T04:22:59.654Z,5.60
2019-04-16T04:25:29.897Z,5.60
2019-04-16T04:28:00.098Z,5.60
2019-04-16T04:30:30.328Z,5.70
2019-04-16T04:33:00.599Z,5.70
2019-04-16T04:35:30.808Z,5.60
2019-04-16T04:38:04.158Z,5.60
2019-04-16T04:40:43.676Z,5.60
2019-04-16T04:43:04.860Z,5.60
2019-04-16T04:45:37.682Z,5.60
2019-04-16T04:48:07.142Z,5.60
2019-04-16T04:50:37.345Z,5.50
2019-04-16T04:53:07.585Z,5.50
2019-04-16T04:55:37.804Z,5.50
2019-04-16T04:58:08.014Z,5.40
2019-04-16T05:00:40.270Z,5.40
2019-04-16T05:03:24.715Z,5.70
2019-04-16T05:05:59.275Z,5.40
2019-04-16T05:08:29.464Z,5.40
2019-04-16T05:11:02.765Z,5.40
2019-04-16T05:13:31.693Z,5.40
2019-04-16T05:16:02.798Z,5.40
2019-04-16T05:18:32.997Z,5.40
2019-04-16T05:21:03.207Z,5.40
2019-04-16T05:23:33.417Z,5.40
2019-04-16T05:26:04.718Z,5.40
2019-04-16T05:28:35.561Z,5.40
2019-04-16T05:31:05.857Z,5.50
2019-04-16T05:33:37.507Z,5.50
2019-04-16T05:36:11.054Z,5.60
2019-04-16T05:38:40.094Z,5.60
2019-04-16T05:41:13.552Z,5.60
2019-04-16T05:43:42.227Z,5.60
2019-04-16T05:46:12.458Z,5.70
2019-04-16T05:48:42.675Z,5.00
2019-04-16T05:51:12.936Z,6.20
2019-04-16T05:53:44.791Z,5.80
2019-04-16T05:56:22.656Z,5.90
2019-04-16T05:58:51.135Z,5.90
2019-04-16T06:01:38.032Z,5.90
2019-04-16T06:04:08.230Z,6.00
2019-04-16T06:06:38.447Z,6.00
2019-04-16T06:09:12.158Z,6.10
2019-04-16T06:11:41.746Z,6.20
2019-04-16T06:14:17.933Z,6.20
2019-04-16T06:16:56.792Z,6.30
2019-04-16T06:19:32.242Z,6.40
2019-04-16T06:22:06.832Z,6.40
2019-04-16T06:24:54.956Z,6.50
2019-04-16T06:27:32.543Z,6.60
2019-04-16T06:30:04.511Z,6.60
2019-04-16T06:32:36.379Z,6.70
2019-04-16T06:35:11.119Z,6.80
2019-04-16T06:37:59.185Z,6.90
2019-04-16T06:40:49.024Z,7.00
2019-04-16T06:43:37.068Z,7.10
2019-04-16T06:46:09.426Z,7.10
2019-04-16T06:48:42.451Z,7.20
2019-04-16T06:51:31.760Z,7.30
2019-04-16T06:54:19.588Z,7.30
2019-04-16T06:57:00.452Z,7.40
2019-04-16T06:59:48.682Z,7.50
2019-04-16T07:02:37.575Z,7.60
2019-04-16T07:05:14.404Z,7.70
2019-04-16T07:07:58.262Z,7.80
2019-04-16T07:10:43.773Z,7.90
2019-04-16T07:13:02.030Z,8.00
2019-04-16T07:15:32.311Z,8.10
2019-04-16T07:18:05.395Z,8.20
2019-04-16T07:20:34.439Z,8.30
2019-04-16T07:23:04.650Z,8.40
2019-04-16T07:25:39.709Z,8.40
2019-04-16T07:28:25.832Z,8.50
2019-04-16T07:31:00.776Z,8.60
2019-04-16T07:33:32.651Z,8.70
2019-04-16T07:36:20.661Z,8.80
2019-04-16T07:39:08.927Z,8.90
2019-04-16T07:41:43.286Z,9.00
2019-04-16T07:44:17.068Z,9.10
2019-04-16T07:46:57.753Z,9.20
2019-04-16T07:49:45.216Z,9.20
2019-04-16T07:52:33.168Z,9.30
2019-04-16T07:55:05.366Z,9.40
2019-04-16T07:57:35.565Z,9.50
2019-04-16T08:00:09.806Z,9.50
2019-04-16T08:02:40.253Z,9.60
2019-04-16T08:05:10.723Z,9.70
2019-04-16T08:07:40.925Z,9.80
2019-04-16T08:10:11.666Z,9.90
2019-04-16T08:12:43.535Z,9.90
2019-04-16T08:15:15.426Z,10.00
2019-04-16T08:17:45.863Z,10.10
2019-04-16T08:20:19.747Z,10.20
2019-04-16T08:22:49.265Z,10.20
2019-04-16T08:25:21.161Z,10.30
2019-04-16T08:27:54.123Z,10.40
2019-04-16T08:30:23.527Z,10.50
2019-04-16T08:32:53.792Z,10.60
2019-04-16T08:35:25.157Z,10.60
2019-04-16T08:37:57.924Z,10.70
2019-04-16T08:40:27.394Z,10.70
2019-04-16T08:42:58.577Z,10.80
2019-04-16T08:45:28.906Z,10.90
2019-04-16T08:47:59.134Z,10.90
2019-04-16T08:50:29.390Z,11.00
2019-04-16T08:52:59.706Z,11.10
2019-04-16T08:55:29.958Z,11.10
2019-04-16T08:58:00.316Z,11.20
2019-04-16T09:00:31.399Z,11.30
2019-04-16T09:03:01.622Z,11.40
2019-04-16T09:05:31.868Z,11.40
2019-04-16T09:08:13.147Z,11.50
2019-04-16T09:10:44.479Z,11.60
2019-04-16T09:13:30.301Z,11.60
2019-04-16T09:16:01.536Z,11.70
2019-04-16T09:18:39.283Z,11.80
2019-04-16T09:21:10.562Z,11.90
2019-04-16T09:23:43.044Z,11.90
2019-04-16T09:26:27.160Z,12.00
2019-04-16T09:29:03.796Z,12.00
2019-04-16T09:31:32.654Z,12.20
2019-04-16T09:34:16.739Z,12.20
2019-04-16T09:36:51.373Z,12.20
2019-04-16T09:39:26.226Z,12.30
2019-04-16T09:41:56.512Z,12.40
2019-04-16T09:44:29.791Z,12.40
2019-04-16T09:46:59.835Z,12.50
2019-04-16T09:49:30.768Z,12.50
2019-04-16T09:52:03.789Z,12.60
2019-04-16T09:54:33.033Z,12.60
2019-04-16T09:57:03.272Z,12.70
2019-04-16T09:59:38.050Z,12.70
2019-04-16T10:02:15.682Z,12.70
2019-04-16T10:04:45.958Z,12.80
2019-04-16T10:07:16.234Z,12.90
2019-04-16T10:09:46.449Z,12.90
2019-04-16T10:12:16.699Z,13.00
2019-04-16T10:14:46.893Z,13.10
2019-04-16T10:17:17.138Z,13.10
2019-04-16T10:19:47.416Z,13.20
2019-04-16T10:22:17.644Z,13.20
2019-04-16T10:25:07.330Z,13.30
2019-04-16T10:27:39.279Z,13.30
2019-04-16T10:30:17.902Z,13.40
2019-04-16T10:33:03.385Z,13.40
2019-04-16T10:35:33.672Z,13.40
2019-04-16T10:38:05.623Z,13.50
2019-04-16T10:40:37.466Z,13.50
2019-04-16T10:43:09.527Z,13.50
2019-04-16T10:45:59.824Z,13.50
2019-04-16T10:48:31.689Z,13.60
2019-04-16T10:51:15.383Z,13.60
2019-04-16T10:53:46.135Z,13.70
2019-04-16T10:56:57.023Z,13.70
2019-04-16T10:59:42.154Z,13.80
2019-04-16T11:02:32.413Z,13.80
2019-04-16T11:05:04.329Z,13.90
2019-04-16T11:07:35.839Z,13.90
2019-04-16T11:10:11.750Z,13.90
2019-04-16T11:12:41.809Z,13.90
2019-04-16T11:15:14.078Z,14.00
2019-04-16T11:17:44.319Z,14.10
2019-04-16T11:20:15.394Z,14.10
2019-04-16T11:22:45.760Z,14.20
2019-04-16T11:25:16.444Z,14.20
2019-04-16T11:27:46.874Z,14.20
2019-04-16T11:30:28.748Z,14.30
2019-04-16T11:32:59.967Z,14.30
2019-04-16T11:35:30.287Z,14.40
2019-04-16T11:38:00.588Z,14.40
2019-04-16T11:40:30.848Z,14.50
2019-04-16T11:43:01.148Z,14.60
2019-04-16T11:45:32.128Z,14.60
2019-04-16T11:48:02.723Z,14.70
2019-04-16T11:50:35.948Z,14.70
2019-04-16T11:53:05.503Z,14.70
2019-04-16T11:55:35.799Z,14.80
2019-04-16T11:58:07.649Z,14.80
2019-04-16T12:00:42.824Z,14.90
2019-04-16T12:03:26.683Z,14.90
2019-04-16T12:06:01.319Z,15.00
2019-04-16T12:08:33.134Z,15.00
2019-04-16T12:11:07.797Z,15.00
2019-04-16T12:13:39.692Z,15.00
2019-04-16T12:16:24.465Z,15.00
2019-04-16T12:19:09.481Z,15.10
2019-04-16T12:21:41.400Z,15.10
2019-04-16T12:24:19.146Z,15.20
2019-04-16T12:26:53.893Z,15.30
2019-04-16T12:29:32.163Z,15.30
2019-04-16T12:32:05.821Z,15.40
2019-04-16T12:34:47.022Z,15.40
2019-04-16T12:37:18.986Z,15.40
2019-04-16T12:39:50.963Z,15.40
2019-04-16T12:42:25.586Z,15.40
2019-04-16T12:45:00.165Z,15.50
2019-04-16T12:47:32.113Z,15.60
2019-04-16T12:50:07.373Z,15.60
2019-04-16T12:52:55.017Z,15.70
2019-04-16T12:55:31.399Z,15.70
2019-04-16T12:58:01.247Z,15.70
2019-04-16T13:00:38.977Z,15.80
2019-04-16T13:03:23.191Z,15.90
2019-04-16T13:06:11.032Z,15.90
2019-04-16T13:08:45.632Z,16.00
2019-04-16T13:11:17.566Z,16.00
2019-04-16T13:13:51.972Z,16.10
2019-04-16T13:16:35.790Z,16.20
2019-04-16T13:19:07.734Z,16.20
2019-04-16T13:21:39.806Z,16.20
2019-04-16T13:24:12.216Z,16.20
2019-04-16T13:26:47.109Z,16.20
2019-04-16T13:29:18.251Z,16.20
2019-04-16T13:31:48.509Z,16.30
2019-04-16T13:34:19.445Z,16.40
2019-04-16T13:36:51.813Z,16.50
2019-04-16T13:39:26.315Z,16.60
2019-04-16T13:41:56.612Z,16.60
2019-04-16T13:45:16.921Z,16.70
2019-04-16T13:47:47.640Z,16.80
2019-04-16T13:50:35.987Z,16.80
2019-04-16T13:53:05.146Z,16.80
2019-04-16T13:55:44.588Z,16.80
2019-04-16T13:58:25.353Z,16.80
2019-04-16T14:00:57.202Z,16.80
2019-04-16T14:03:27.404Z,16.90
2019-04-16T14:05:57.633Z,17.00
2019-04-16T14:08:27.840Z,17.00
2019-04-16T14:10:58.137Z,17.10
2019-04-16T14:13:28.340Z,17.10
2019-04-16T14:15:58.818Z,17.10
2019-04-16T14:18:29.552Z,17.20
2019-04-16T14:21:00.994Z,17.20
2019-04-16T14:23:31.187Z,17.30
2019-04-16T14:26:01.428Z,17.40
2019-04-16T14:28:34.258Z,17.40
2019-04-16T14:31:03.972Z,17.50
2019-04-16T14:33:40.380Z,17.60
2019-04-16T14:36:12.771Z,17.70
2019-04-16T14:38:47.476Z,17.70
2019-04-16T14:41:17.711Z,17.80
2019-04-16T14:43:49.550Z,17.70
2019-04-16T14:46:19.776Z,17.70
2019-04-16T14:49:09.338Z,17.80
2019-04-16T14:51:39.581Z,17.80
2019-04-16T14:54:11.454Z,17.80
2019-04-16T14:56:45.858Z,17.80
2019-04-16T14:59:30.261Z,17.90
2019-04-16T15:02:00.239Z,18.00
2019-04-16T15:04:34.835Z,18.10
2019-04-16T15:07:06.769Z,18.10
2019-04-16T15:09:38.703Z,18.20
2019-04-16T15:12:26.404Z,18.20
2019-04-16T15:15:03.806Z,18.30
2019-04-16T15:17:44.262Z,18.40
2019-04-16T15:20:22.270Z,18.50
2019-04-16T15:23:03.199Z,18.80
2019-04-16T15:25:40.672Z,19.50
2019-04-16T15:28:21.114Z,20.10
2019-04-16T15:31:00.754Z,20.70
2019-04-16T15:33:35.780Z,23.00
2019-04-16T15:36:19.521Z,26.20
2019-04-16T15:38:49.395Z,28.90
2019-04-16T15:41:21.357Z,31.00
2019-04-16T15:43:53.432Z,32.10
2019-04-16T15:46:35.221Z,32.80
2019-04-16T15:49:07.452Z,32.00
2019-04-16T15:51:39.345Z,30.50
2019-04-16T15:54:27.492Z,29.10
2019-04-16T15:57:08.024Z,27.40
2019-04-16T15:59:38.890Z,25.80
2019-04-16T16:02:26.187Z,24.70
2019-04-16T16:04:58.128Z,24.20
2019-04-16T16:07:28.915Z,24.20
2019-04-16T16:10:13.786Z,25.00
2019-04-16T16:12:44.440Z,26.00
2019-04-16T16:15:14.769Z,26.30
2019-04-16T16:17:44.972Z,26.20
2019-04-16T16:20:15.915Z,26.10
2019-04-16T16:22:46.111Z,26.20
2019-04-16T16:25:16.368Z,26.00
2019-04-16T16:27:47.138Z,25.50
2019-04-16T16:30:17.726Z,24.60
2019-04-16T16:32:47.955Z,23.70
2019-04-16T16:35:18.228Z,23.30
2019-04-16T16:37:48.461Z,22.90
2019-04-16T16:40:18.853Z,22.70
2019-04-16T16:42:49.173Z,22.70
2019-04-16T16:45:21.020Z,22.40
2019-04-16T16:47:51.251Z,21.90
2019-04-16T16:50:21.487Z,21.30
2019-04-16T16:53:05.407Z,20.70
2019-04-16T16:55:37.462Z,20.10
2019-04-16T16:58:12.067Z,19.60
2019-04-16T17:00:44.037Z,19.20
2019-04-16T17:03:24.868Z,18.90
2019-04-16T17:05:56.206Z,18.60
2019-04-16T17:08:27.055Z,18.30
2019-04-16T17:11:14.056Z,18.10
2019-04-16T17:13:30.378Z,17.80
2019-04-16T17:16:00.618Z,17.60
2019-04-16T17:18:30.881Z,17.50
2019-04-16T17:21:01.319Z,17.30
2019-04-16T17:23:31.514Z,17.20
2019-04-16T17:26:01.808Z,17.10
2019-04-16T17:28:32.095Z,16.90
2019-04-16T17:31:02.599Z,16.80
2019-04-16T17:33:32.959Z,16.60
2019-04-16T17:36:03.425Z,16.50
2019-04-16T17:38:33.909Z,16.40
2019-04-16T17:41:15.993Z,16.20
2019-04-16T17:44:02.888Z,16.10
2019-04-16T17:46:39.281Z,16.00
2019-04-16T17:49:13.847Z,15.90
2019-04-16T17:51:48.296Z,15.70
2019-04-16T17:54:22.611Z,15.60
2019-04-16T17:57:12.290Z,15.50
2019-04-16T17:59:46.788Z,15.30
2019-04-16T18:02:18.764Z,15.20
2019-04-16T18:04:50.624Z,15.00
2019-04-16T18:07:38.720Z,14.90
2019-04-16T18:10:26.547Z,14.80
2019-04-16T18:12:58.981Z,14.70
2019-04-16T18:15:46.968Z,14.50
2019-04-16T18:18:36.666Z,14.40
2019-04-16T18:21:08.709Z,14.30
2019-04-16T18:23:43.103Z,14.20
2019-04-16T18:26:18.071Z,14.10
2019-04-16T18:29:06.534Z,14.00
2019-04-16T18:31:41.251Z,14.00
2019-04-16T18:34:13.134Z,13.80
2019-04-16T18:36:45.051Z,13.80
2019-04-16T18:39:37.145Z,13.70
2019-04-16T18:42:07.464Z,13.70
2019-04-16T18:44:56.288Z,13.70
2019-04-16T18:47:34.394Z,13.60
2019-04-16T18:50:07.876Z,13.60
2019-04-16T18:52:38.177Z,13.60
2019-04-16T18:55:08.986Z,13.50
2019-04-16T18:57:39.308Z,13.50
2019-04-16T19:00:20.372Z,13.50
2019-04-16T19:02:50.592Z,13.50
2019-04-16T19:05:20.843Z,13.40
2019-04-16T19:07:51.158Z,13.40
2019-04-16T19:10:21.559Z,13.40
2019-04-16T19:12:52.095Z,13.30
2019-04-16T19:15:22.696Z,13.30
2019-04-16T19:17:53.436Z,13.20
2019-04-16T19:20:23.735Z,13.20
2019-04-16T19:22:54.204Z,13.10
2019-04-16T19:25:24.572Z,13.10
2019-04-16T19:27:54.768Z,13.00
2019-04-16T19:30:26.412Z,13.00
2019-04-16T19:33:00.129Z,12.90
2019-04-16T19:35:28.589Z,12.90
2019-04-16T19:37:59.039Z,12.80
2019-04-16T19:40:30.922Z,12.80
2019-04-16T19:43:03.017Z,12.70
2019-04-16T19:45:33.196Z,12.70
2019-04-16T19:48:03.479Z,12.70
2019-04-16T19:50:36.531Z,12.70
2019-04-16T19:53:05.712Z,12.60
2019-04-16T19:55:36.038Z,12.50
2019-04-16T19:58:06.367Z,12.50
2019-04-16T20:00:36.893Z,12.50
2019-04-16T20:03:07.177Z,12.50
2019-04-16T20:05:37.424Z,12.40
2019-04-16T20:08:07.687Z,12.50
2019-04-16T20:10:38.025Z,12.40
2019-04-16T20:13:08.282Z,12.50
2019-04-16T20:15:43.209Z,12.50
2019-04-16T20:18:10.594Z,12.50
2019-04-16T20:20:40.807Z,12.40
2019-04-16T20:23:11.084Z,12.40
2019-04-16T20:25:41.326Z,12.40
2019-04-16T20:28:15.317Z,12.40
2019-04-16T20:30:43.625Z,12.40
2019-04-16T20:33:13.853Z,12.30
2019-04-16T20:35:44.154Z,12.30
2019-04-16T20:38:17.084Z,12.30
2019-04-16T20:40:46.352Z,12.20
2019-04-16T20:43:16.610Z,12.20
2019-04-16T20:45:46.882Z,12.20
2019-04-16T20:48:17.188Z,12.20
2019-04-16T20:50:52.798Z,12.10
2019-04-16T20:53:19.474Z,12.10
2019-04-16T20:55:52.497Z,12.00
2019-04-16T20:58:22.851Z,12.00
2019-04-16T21:00:55.128Z,12.00
2019-04-16T21:03:26.358Z,11.90
2019-04-16T21:05:58.991Z,11.90
2019-04-16T21:08:29.462Z,11.90
2019-04-16T21:11:00.074Z,11.90
2019-04-16T21:13:32.130Z,11.90
2019-04-16T21:16:02.949Z,11.90
2019-04-16T21:18:33.287Z,11.80
2019-04-16T21:21:03.565Z,11.80
2019-04-16T21:23:34.671Z,11.90
2019-04-16T21:26:05.818Z,11.80
2019-04-16T21:28:37.708Z,11.80
2019-04-16T21:31:09.578Z,11.80
2019-04-16T21:33:53.327Z,11.80
2019-04-16T21:36:37.965Z,11.80
2019-04-16T21:39:10.763Z,11.80
2019-04-16T21:41:41.219Z,11.80
2019-04-16T21:44:13.195Z,11.80
2019-04-16T21:46:43.618Z,11.80
2019-04-16T21:49:13.879Z,11.80
2019-04-16T21:52:02.182Z,11.70
2019-04-16T21:54:32.458Z,11.70
2019-04-16T21:57:02.865Z,11.70
2019-04-16T21:59:33.194Z,11.60
2019-04-16T22:02:20.377Z,11.60
2019-04-16T22:04:50.949Z,11.60
2019-04-16T22:07:24.326Z,11.50
2019-04-16T22:09:53.234Z,11.50
2019-04-16T22:12:23.547Z,11.50
2019-04-16T22:14:55.122Z,11.50
2019-04-16T22:17:26.544Z,11.50
2019-04-16T22:20:01.464Z,11.40
2019-04-16T22:22:28.836Z,11.40
2019-04-16T22:24:59.065Z,11.40
2019-04-16T22:27:29.275Z,11.30
2019-04-16T22:29:59.570Z,11.30
2019-04-16T22:32:30.874Z,11.30
2019-04-16T22:35:01.649Z,11.20
2019-04-16T22:37:32.039Z,11.20
2019-04-16T22:40:09.828Z,11.20
2019-04-16T22:42:44.681Z,11.20
2019-04-16T22:45:18.976Z,11.10
2019-04-16T22:47:50.902Z,11.10
2019-04-16T22:50:21.152Z,11.10
2019-04-16T22:52:51.360Z,11.00
2019-04-16T22:55:24.375Z,11.00
2019-04-16T22:57:53.638Z,11.00
2019-04-16T23:00:28.834Z,10.90
2019-04-16T23:02:59.174Z,10.90
2019-04-16T23:05:30.744Z,10.80
2019-04-16T23:08:01.482Z,10.80
2019-04-16T23:10:31.868Z,10.80
2019-04-16T23:13:02.098Z,10.70
2019-04-16T23:15:33.238Z,10.70
2019-04-16T23:18:03.473Z,10.70
2019-04-16T23:20:36.938Z,10.60
2019-04-16T23:23:05.621Z,10.60
2019-04-16T23:25:35.910Z,10.50
2019-04-16T23:28:09.474Z,10.50
2019-04-16T23:30:38.043Z,10.50
2019-04-16T23:33:08.234Z,10.50
2019-04-16T23:35:43.378Z,10.40
2019-04-16T23:38:10.382Z,10.40
2019-04-16T23:40:43.565Z,10.30
2019-04-16T23:43:14.185Z,10.30
2019-04-16T23:45:46.078Z,10.30
2019-04-16T23:48:34.012Z,10.30
2019-04-16T23:54:19.927Z,10.20
2019-04-16T23:56:57.568Z,10.10
2019-04-16T23:59:35.891Z,10.10
